sensor_id;sensor_type;location;lat;lon;timestamp;pressure;altitude;pressure_sealevel;temperature;humidity
48156;BME280;35568;48.104;11.782;2023-10-31T00:01:50;93935.00;;;10.02;64.62
48156;BME280;35568;48.104;11.782;2023-10-31T00:04:18;93934.90;;;10.37;64.14
48156;BME280;35568;48.104;11.782;2023-10-31T00:06:45;93935.89;;;10.19;64.04
48156;BME280;35568;48.104;11.782;2023-10-31T00:09:12;93942.65;;;10.16;63.89
48156;BME280;35568;48.104;11.782;2023-10-31T00:11:41;93954.24;;;9.78;64.15
48156;BME280;35568;48.104;11.782;2023-10-31T00:14:08;93957.72;;;9.54;64.46
48156;BME280;35568;48.104;11.782;2023-10-31T00:16:35;93953.91;;;9.48;64.45
48156;BME280;35568;48.104;11.782;2023-10-31T00:19:03;93950.04;;;9.16;64.87
48156;BME280;35568;48.104;11.782;2023-10-31T00:21:30;93950.10;;;9.37;64.67
48156;BME280;35568;48.104;11.782;2023-10-31T00:23:57;93956.60;;;9.29;64.10
48156;BME280;35568;48.104;11.782;2023-10-31T00:26:24;93959.49;;;9.31;64.24
48156;BME280;35568;48.104;11.782;2023-10-31T00:28:51;93962.44;;;9.23;64.09
48156;BME280;35568;48.104;11.782;2023-10-31T00:31:18;93956.66;;;9.25;64.00
48156;BME280;35568;48.104;11.782;2023-10-31T00:33:46;93962.28;;;9.23;63.53
48156;BME280;35568;48.104;11.782;2023-10-31T00:36:13;93960.34;;;9.36;63.39
48156;BME280;35568;48.104;11.782;2023-10-31T00:38:40;93954.84;;;9.48;62.93
48156;BME280;35568;48.104;11.782;2023-10-31T00:41:07;93953.77;;;9.79;62.44
48156;BME280;35568;48.104;11.782;2023-10-31T00:43:35;93954.48;;;9.61;62.35
48156;BME280;35568;48.104;11.782;2023-10-31T00:46:03;93951.52;;;9.66;62.12
48156;BME280;35568;48.104;11.782;2023-10-31T00:48:31;93954.21;;;9.70;62.14
48156;BME280;35568;48.104;11.782;2023-10-31T00:50:57;93954.71;;;9.74;62.17
48156;BME280;35568;48.104;11.782;2023-10-31T00:53:24;93951.06;;;9.71;62.20
48156;BME280;35568;48.104;11.782;2023-10-31T00:55:51;93946.31;;;9.45;62.36
48156;BME280;35568;48.104;11.782;2023-10-31T00:58:18;93954.57;;;9.48;62.55
48156;BME280;35568;48.104;11.782;2023-10-31T01:00:44;93958.52;;;9.35;62.58
48156;BME280;35568;48.104;11.782;2023-10-31T01:03:11;93959.72;;;9.40;62.57
48156;BME280;35568;48.104;11.782;2023-10-31T01:05:38;93940.69;;;9.46;62.52
48156;BME280;35568;48.104;11.782;2023-10-31T01:08:05;93938.24;;;9.48;62.48
48156;BME280;35568;48.104;11.782;2023-10-31T01:10:32;93937.05;;;9.07;62.64
48156;BME280;35568;48.104;11.782;2023-10-31T01:12:59;93943.41;;;9.02;62.57
48156;BME280;35568;48.104;11.782;2023-10-31T01:15:26;93947.09;;;9.58;62.28
48156;BME280;35568;48.104;11.782;2023-10-31T01:17:53;93946.89;;;9.68;62.27
48156;BME280;35568;48.104;11.782;2023-10-31T01:20:19;93954.35;;;9.34;62.28
48156;BME280;35568;48.104;11.782;2023-10-31T01:22:46;93959.22;;;9.34;62.42
48156;BME280;35568;48.104;11.782;2023-10-31T01:25:14;93958.62;;;9.55;62.13
48156;BME280;35568;48.104;11.782;2023-10-31T01:27:42;93954.64;;;9.64;62.26
48156;BME280;35568;48.104;11.782;2023-10-31T01:30:09;93950.89;;;9.61;62.40
48156;BME280;35568;48.104;11.782;2023-10-31T01:32:37;93964.78;;;9.47;62.43
48156;BME280;35568;48.104;11.782;2023-10-31T01:35:04;93964.12;;;9.42;62.52
48156;BME280;35568;48.104;11.782;2023-10-31T01:37:31;93970.97;;;9.48;62.39
48156;BME280;35568;48.104;11.782;2023-10-31T01:39:58;93972.87;;;9.68;62.27
48156;BME280;35568;48.104;11.782;2023-10-31T01:42:25;93970.36;;;9.49;62.54
48156;BME280;35568;48.104;11.782;2023-10-31T01:44:52;93972.69;;;9.24;62.46
48156;BME280;35568;48.104;11.782;2023-10-31T01:47:18;93976.21;;;9.46;62.37
48156;BME280;35568;48.104;11.782;2023-10-31T01:49:46;93973.60;;;9.39;62.65
48156;BME280;35568;48.104;11.782;2023-10-31T01:52:13;93975.59;;;9.19;62.12
48156;BME280;35568;48.104;11.782;2023-10-31T01:54:40;93981.28;;;9.06;62.49
48156;BME280;35568;48.104;11.782;2023-10-31T01:57:07;93982.99;;;9.21;62.60
48156;BME280;35568;48.104;11.782;2023-10-31T01:59:35;93984.09;;;9.02;62.68
48156;BME280;35568;48.104;11.782;2023-10-31T02:02:04;93989.58;;;8.77;62.95
48156;BME280;35568;48.104;11.782;2023-10-31T02:04:32;93990.23;;;9.03;63.03
48156;BME280;35568;48.104;11.782;2023-10-31T02:06:59;93988.37;;;9.11;62.55
48156;BME280;35568;48.104;11.782;2023-10-31T02:09:26;93991.84;;;8.87;62.62
48156;BME280;35568;48.104;11.782;2023-10-31T02:11:53;94000.10;;;9.22;62.28
48156;BME280;35568;48.104;11.782;2023-10-31T02:14:23;94006.16;;;9.01;62.49
48156;BME280;35568;48.104;11.782;2023-10-31T02:16:51;94009.98;;;9.13;62.35
48156;BME280;35568;48.104;11.782;2023-10-31T02:19:20;94007.38;;;9.16;61.91
48156;BME280;35568;48.104;11.782;2023-10-31T02:21:47;94008.03;;;9.19;61.70
48156;BME280;35568;48.104;11.782;2023-10-31T02:24:14;94010.13;;;9.24;61.83
48156;BME280;35568;48.104;11.782;2023-10-31T02:26:41;94012.12;;;9.22;61.64
48156;BME280;35568;48.104;11.782;2023-10-31T02:29:08;94012.04;;;8.69;62.02
48156;BME280;35568;48.104;11.782;2023-10-31T02:31:35;94014.87;;;8.88;61.92
48156;BME280;35568;48.104;11.782;2023-10-31T02:34:02;94009.96;;;8.91;61.98
48156;BME280;35568;48.104;11.782;2023-10-31T02:36:28;94008.82;;;8.93;61.73
48156;BME280;35568;48.104;11.782;2023-10-31T02:38:55;94003.19;;;8.95;61.86
48156;BME280;35568;48.104;11.782;2023-10-31T02:41:22;94006.20;;;8.87;61.93
48156;BME280;35568;48.104;11.782;2023-10-31T02:43:50;94009.25;;;9.16;62.02
48156;BME280;35568;48.104;11.782;2023-10-31T02:46:17;94021.21;;;8.89;62.05
48156;BME280;35568;48.104;11.782;2023-10-31T02:48:44;94019.22;;;8.78;62.09
48156;BME280;35568;48.104;11.782;2023-10-31T02:51:12;94014.70;;;8.62;62.58
48156;BME280;35568;48.104;11.782;2023-10-31T02:53:39;94022.55;;;8.78;62.50
48156;BME280;35568;48.104;11.782;2023-10-31T02:56:07;94027.42;;;8.69;62.11
48156;BME280;35568;48.104;11.782;2023-10-31T02:58:34;94034.61;;;8.76;62.27
48156;BME280;35568;48.104;11.782;2023-10-31T03:01:02;94030.49;;;8.72;62.20
48156;BME280;35568;48.104;11.782;2023-10-31T03:03:29;94039.43;;;8.66;62.42
48156;BME280;35568;48.104;11.782;2023-10-31T03:05:57;94047.25;;;8.63;62.25
48156;BME280;35568;48.104;11.782;2023-10-31T03:08:24;94053.12;;;8.69;62.28
48156;BME280;35568;48.104;11.782;2023-10-31T03:10:51;94060.89;;;8.64;62.42
48156;BME280;35568;48.104;11.782;2023-10-31T03:13:19;94063.49;;;8.71;62.30
48156;BME280;35568;48.104;11.782;2023-10-31T03:15:47;94059.89;;;8.82;62.07
48156;BME280;35568;48.104;11.782;2023-10-31T03:18:14;94058.80;;;9.09;61.90
48156;BME280;35568;48.104;11.782;2023-10-31T03:20:44;94055.49;;;9.02;61.95
48156;BME280;35568;48.104;11.782;2023-10-31T03:23:12;94052.47;;;9.04;61.78
48156;BME280;35568;48.104;11.782;2023-10-31T03:25:39;94057.97;;;9.16;61.75
48156;BME280;35568;48.104;11.782;2023-10-31T03:28:18;94052.40;;;9.11;61.82
48156;BME280;35568;48.104;11.782;2023-10-31T03:30:46;94039.54;;;9.02;61.84
48156;BME280;35568;48.104;11.782;2023-10-31T03:33:14;94035.25;;;9.04;61.61
48156;BME280;35568;48.104;11.782;2023-10-31T03:35:41;94047.35;;;8.79;61.71
48156;BME280;35568;48.104;11.782;2023-10-31T03:38:09;94058.46;;;8.87;61.71
48156;BME280;35568;48.104;11.782;2023-10-31T03:40:37;94053.47;;;9.10;61.15
48156;BME280;35568;48.104;11.782;2023-10-31T03:43:04;94047.87;;;9.11;61.22
48156;BME280;35568;48.104;11.782;2023-10-31T03:45:31;94055.84;;;8.86;61.38
48156;BME280;35568;48.104;11.782;2023-10-31T03:47:58;94065.70;;;8.65;61.53
48156;BME280;35568;48.104;11.782;2023-10-31T03:50:25;94063.15;;;9.15;61.52
48156;BME280;35568;48.104;11.782;2023-10-31T03:52:51;94060.42;;;9.07;61.24
48156;BME280;35568;48.104;11.782;2023-10-31T03:55:18;94054.22;;;9.21;60.82
48156;BME280;35568;48.104;11.782;2023-10-31T03:57:45;94057.64;;;9.22;60.76
48156;BME280;35568;48.104;11.782;2023-10-31T04:03:00;94071.11;;;8.96;59.94
48156;BME280;35568;48.104;11.782;2023-10-31T04:05:28;94073.62;;;9.22;59.94
48156;BME280;35568;48.104;11.782;2023-10-31T04:07:55;94076.74;;;9.34;60.19
48156;BME280;35568;48.104;11.782;2023-10-31T04:10:22;94079.04;;;9.07;60.62
48156;BME280;35568;48.104;11.782;2023-10-31T04:12:49;94081.87;;;8.76;60.56
48156;BME280;35568;48.104;11.782;2023-10-31T04:15:16;94088.83;;;8.93;60.69
48156;BME280;35568;48.104;11.782;2023-10-31T04:17:44;94092.43;;;8.89;60.50
48156;BME280;35568;48.104;11.782;2023-10-31T04:20:11;94098.35;;;8.65;60.34
48156;BME280;35568;48.104;11.782;2023-10-31T04:22:38;94098.19;;;8.82;60.68
48156;BME280;35568;48.104;11.782;2023-10-31T04:25:05;94096.00;;;8.77;60.36
48156;BME280;35568;48.104;11.782;2023-10-31T04:27:33;94095.99;;;8.79;60.12
48156;BME280;35568;48.104;11.782;2023-10-31T04:30:00;94098.08;;;8.88;60.01
48156;BME280;35568;48.104;11.782;2023-10-31T04:32:28;94100.38;;;8.83;60.13
48156;BME280;35568;48.104;11.782;2023-10-31T04:34:55;94100.21;;;8.78;60.43
48156;BME280;35568;48.104;11.782;2023-10-31T04:37:23;94099.30;;;8.87;59.68
48156;BME280;35568;48.104;11.782;2023-10-31T04:39:51;94098.18;;;8.75;59.98
48156;BME280;35568;48.104;11.782;2023-10-31T04:42:18;94100.80;;;8.69;59.75
48156;BME280;35568;48.104;11.782;2023-10-31T04:44:46;94095.47;;;8.94;59.31
48156;BME280;35568;48.104;11.782;2023-10-31T04:47:13;94100.16;;;8.93;59.46
48156;BME280;35568;48.104;11.782;2023-10-31T04:49:40;94091.69;;;8.82;59.21
48156;BME280;35568;48.104;11.782;2023-10-31T04:52:07;94092.06;;;8.75;59.04
48156;BME280;35568;48.104;11.782;2023-10-31T04:54:34;94093.19;;;8.79;59.29
48156;BME280;35568;48.104;11.782;2023-10-31T04:57:01;94092.54;;;8.61;59.57
48156;BME280;35568;48.104;11.782;2023-10-31T04:59:29;94092.04;;;8.81;59.43
48156;BME280;35568;48.104;11.782;2023-10-31T05:01:55;94096.57;;;8.88;59.46
48156;BME280;35568;48.104;11.782;2023-10-31T05:04:22;94093.92;;;8.77;59.36
48156;BME280;35568;48.104;11.782;2023-10-31T05:06:50;94098.43;;;8.90;59.25
48156;BME280;35568;48.104;11.782;2023-10-31T05:09:17;94101.43;;;8.85;59.38
48156;BME280;35568;48.104;11.782;2023-10-31T05:11:44;94103.41;;;8.78;59.24
48156;BME280;35568;48.104;11.782;2023-10-31T05:14:10;94114.21;;;8.74;59.42
48156;BME280;35568;48.104;11.782;2023-10-31T05:16:42;94117.41;;;8.92;59.78
48156;BME280;35568;48.104;11.782;2023-10-31T05:19:09;94119.27;;;8.97;59.55
48156;BME280;35568;48.104;11.782;2023-10-31T05:21:37;94121.69;;;8.67;59.72
48156;BME280;35568;48.104;11.782;2023-10-31T05:24:05;94127.42;;;8.60;60.03
48156;BME280;35568;48.104;11.782;2023-10-31T05:26:32;94131.56;;;8.88;60.21
48156;BME280;35568;48.104;11.782;2023-10-31T05:28:59;94135.77;;;8.77;59.89
48156;BME280;35568;48.104;11.782;2023-10-31T05:31:26;94143.36;;;8.78;59.90
48156;BME280;35568;48.104;11.782;2023-10-31T05:33:54;94147.44;;;8.70;59.87
48156;BME280;35568;48.104;11.782;2023-10-31T05:36:23;94148.87;;;8.63;60.18
48156;BME280;35568;48.104;11.782;2023-10-31T05:38:50;94149.96;;;8.72;60.32
48156;BME280;35568;48.104;11.782;2023-10-31T05:41:18;94151.43;;;8.76;60.03
48156;BME280;35568;48.104;11.782;2023-10-31T05:43:45;94154.17;;;8.80;60.16
48156;BME280;35568;48.104;11.782;2023-10-31T05:46:12;94166.17;;;8.69;60.58
48156;BME280;35568;48.104;11.782;2023-10-31T05:48:39;94171.10;;;8.58;60.69
48156;BME280;35568;48.104;11.782;2023-10-31T05:51:12;94172.32;;;8.52;60.58
48156;BME280;35568;48.104;11.782;2023-10-31T05:53:40;94169.61;;;8.79;60.37
48156;BME280;35568;48.104;11.782;2023-10-31T05:56:08;94169.91;;;8.69;60.51
48156;BME280;35568;48.104;11.782;2023-10-31T05:58:37;94171.09;;;8.66;60.56
48156;BME280;35568;48.104;11.782;2023-10-31T06:01:05;94162.21;;;8.87;59.97
48156;BME280;35568;48.104;11.782;2023-10-31T06:03:32;94167.44;;;8.85;60.12
48156;BME280;35568;48.104;11.782;2023-10-31T06:06:00;94181.29;;;8.72;60.15
48156;BME280;35568;48.104;11.782;2023-10-31T06:08:27;94188.04;;;8.71;60.54
48156;BME280;35568;48.104;11.782;2023-10-31T06:10:55;94188.34;;;8.83;60.34
48156;BME280;35568;48.104;11.782;2023-10-31T06:13:22;94190.54;;;8.96;60.37
48156;BME280;35568;48.104;11.782;2023-10-31T06:15:49;94193.41;;;8.96;60.21
48156;BME280;35568;48.104;11.782;2023-10-31T06:18:17;94195.75;;;8.99;60.05
48156;BME280;35568;48.104;11.782;2023-10-31T06:20:45;94198.15;;;9.14;59.96
48156;BME280;35568;48.104;11.782;2023-10-31T06:23:11;94204.18;;;9.01;60.27
48156;BME280;35568;48.104;11.782;2023-10-31T06:25:38;94205.92;;;8.99;60.20
48156;BME280;35568;48.104;11.782;2023-10-31T06:28:05;94205.00;;;9.06;60.30
48156;BME280;35568;48.104;11.782;2023-10-31T06:30:32;94199.54;;;8.96;60.46
48156;BME280;35568;48.104;11.782;2023-10-31T06:32:59;94202.57;;;9.11;60.52
48156;BME280;35568;48.104;11.782;2023-10-31T06:35:26;94200.04;;;9.17;60.54
48156;BME280;35568;48.104;11.782;2023-10-31T06:37:55;94202.94;;;9.20;60.31
48156;BME280;35568;48.104;11.782;2023-10-31T06:40:23;94206.09;;;9.18;60.34
48156;BME280;35568;48.104;11.782;2023-10-31T06:42:50;94209.66;;;9.11;60.65
48156;BME280;35568;48.104;11.782;2023-10-31T06:45:17;94207.97;;;9.15;60.47
48156;BME280;35568;48.104;11.782;2023-10-31T06:47:44;94214.15;;;9.30;60.36
48156;BME280;35568;48.104;11.782;2023-10-31T06:50:11;94216.51;;;9.09;60.46
48156;BME280;35568;48.104;11.782;2023-10-31T06:52:38;94222.52;;;9.01;60.17
48156;BME280;35568;48.104;11.782;2023-10-31T06:55:06;94226.82;;;9.13;60.61
48156;BME280;35568;48.104;11.782;2023-10-31T06:57:34;94229.67;;;8.95;60.58
48156;BME280;35568;48.104;11.782;2023-10-31T07:00:01;94236.64;;;8.79;60.90
48156;BME280;35568;48.104;11.782;2023-10-31T07:02:29;94239.72;;;8.60;61.25
48156;BME280;35568;48.104;11.782;2023-10-31T07:04:56;94239.46;;;8.71;61.13
48156;BME280;35568;48.104;11.782;2023-10-31T07:07:23;94236.57;;;8.95;61.10
48156;BME280;35568;48.104;11.782;2023-10-31T07:09:50;94237.32;;;8.79;61.25
48156;BME280;35568;48.104;11.782;2023-10-31T07:12:17;94235.94;;;8.82;61.24
48156;BME280;35568;48.104;11.782;2023-10-31T07:14:45;94234.64;;;8.55;61.60
48156;BME280;35568;48.104;11.782;2023-10-31T07:17:11;94236.14;;;8.70;61.48
48156;BME280;35568;48.104;11.782;2023-10-31T07:19:38;94235.70;;;8.94;61.30
48156;BME280;35568;48.104;11.782;2023-10-31T07:22:05;94235.48;;;8.74;61.08
48156;BME280;35568;48.104;11.782;2023-10-31T07:24:32;94232.95;;;8.81;60.91
48156;BME280;35568;48.104;11.782;2023-10-31T07:27:00;94235.39;;;8.92;60.73
48156;BME280;35568;48.104;11.782;2023-10-31T07:29:27;94235.64;;;8.90;60.35
48156;BME280;35568;48.104;11.782;2023-10-31T07:31:54;94240.02;;;9.04;60.44
48156;BME280;35568;48.104;11.782;2023-10-31T07:34:21;94241.63;;;8.98;60.37
48156;BME280;35568;48.104;11.782;2023-10-31T07:36:48;94244.52;;;8.72;60.50
48156;BME280;35568;48.104;11.782;2023-10-31T07:39:16;94250.00;;;8.98;60.25
48156;BME280;35568;48.104;11.782;2023-10-31T07:41:43;94258.65;;;9.00;60.09
48156;BME280;35568;48.104;11.782;2023-10-31T07:44:09;94266.26;;;9.17;60.05
48156;BME280;35568;48.104;11.782;2023-10-31T07:46:36;94269.75;;;9.31;59.77
48156;BME280;35568;48.104;11.782;2023-10-31T07:49:03;94272.99;;;9.38;59.65
48156;BME280;35568;48.104;11.782;2023-10-31T07:51:31;94274.65;;;9.30;59.50
48156;BME280;35568;48.104;11.782;2023-10-31T07:53:58;94275.52;;;9.49;59.35
48156;BME280;35568;48.104;11.782;2023-10-31T07:56:25;94276.33;;;9.72;59.16
48156;BME280;35568;48.104;11.782;2023-10-31T07:58:53;94276.22;;;9.27;59.14
48156;BME280;35568;48.104;11.782;2023-10-31T08:01:21;94277.81;;;9.32;58.91
48156;BME280;35568;48.104;11.782;2023-10-31T08:03:49;94288.67;;;9.41;58.38
48156;BME280;35568;48.104;11.782;2023-10-31T08:06:17;94293.08;;;9.44;58.82
48156;BME280;35568;48.104;11.782;2023-10-31T08:08:43;94297.81;;;9.34;58.58
48156;BME280;35568;48.104;11.782;2023-10-31T08:11:11;94299.01;;;9.80;58.48
48156;BME280;35568;48.104;11.782;2023-10-31T08:13:38;94301.36;;;9.31;58.78
48156;BME280;35568;48.104;11.782;2023-10-31T08:16:06;94299.99;;;9.57;58.40
48156;BME280;35568;48.104;11.782;2023-10-31T08:18:34;94301.06;;;9.40;58.24
48156;BME280;35568;48.104;11.782;2023-10-31T08:21:03;94302.33;;;9.24;57.94
48156;BME280;35568;48.104;11.782;2023-10-31T08:23:30;94306.73;;;9.34;57.97
48156;BME280;35568;48.104;11.782;2023-10-31T08:25:57;94320.93;;;9.28;58.36
48156;BME280;35568;48.104;11.782;2023-10-31T08:28:25;94339.77;;;9.20;57.67
48156;BME280;35568;48.104;11.782;2023-10-31T08:30:52;94354.07;;;9.12;57.93
48156;BME280;35568;48.104;11.782;2023-10-31T08:33:20;94366.26;;;9.22;57.23
48156;BME280;35568;48.104;11.782;2023-10-31T08:35:48;94367.06;;;9.40;57.43
48156;BME280;35568;48.104;11.782;2023-10-31T08:38:15;94371.86;;;9.16;57.43
48156;BME280;35568;48.104;11.782;2023-10-31T08:40:42;94372.75;;;9.27;57.60
48156;BME280;35568;48.104;11.782;2023-10-31T08:43:10;94372.77;;;9.19;58.00
48156;BME280;35568;48.104;11.782;2023-10-31T08:45:36;94372.74;;;9.35;57.73
48156;BME280;35568;48.104;11.782;2023-10-31T08:48:04;94367.18;;;9.16;57.05
48156;BME280;35568;48.104;11.782;2023-10-31T08:50:31;94358.55;;;9.31;56.99
48156;BME280;35568;48.104;11.782;2023-10-31T08:52:59;94359.58;;;9.23;57.35
48156;BME280;35568;48.104;11.782;2023-10-31T08:55:25;94360.35;;;9.18;57.44
48156;BME280;35568;48.104;11.782;2023-10-31T08:57:52;94360.03;;;9.35;56.86
48156;BME280;35568;48.104;11.782;2023-10-31T09:00:19;94367.45;;;9.39;56.97
48156;BME280;35568;48.104;11.782;2023-10-31T09:02:47;94367.78;;;9.38;56.68
48156;BME280;35568;48.104;11.782;2023-10-31T09:05:14;94367.97;;;9.49;56.75
48156;BME280;35568;48.104;11.782;2023-10-31T09:07:41;94366.95;;;9.52;56.41
48156;BME280;35568;48.104;11.782;2023-10-31T09:10:08;94366.37;;;9.53;56.43
48156;BME280;35568;48.104;11.782;2023-10-31T09:12:35;94369.11;;;9.45;56.10
48156;BME280;35568;48.104;11.782;2023-10-31T09:15:03;94375.78;;;9.55;56.37
48156;BME280;35568;48.104;11.782;2023-10-31T09:17:30;94376.05;;;9.74;55.65
48156;BME280;35568;48.104;11.782;2023-10-31T09:19:57;94377.93;;;9.52;55.75
48156;BME280;35568;48.104;11.782;2023-10-31T09:22:25;94382.26;;;9.40;56.07
48156;BME280;35568;48.104;11.782;2023-10-31T09:24:52;94387.77;;;10.05;55.85
48156;BME280;35568;48.104;11.782;2023-10-31T09:27:19;94391.28;;;9.79;55.83
48156;BME280;35568;48.104;11.782;2023-10-31T09:29:46;94396.11;;;9.85;55.49
48156;BME280;35568;48.104;11.782;2023-10-31T09:32:14;94402.02;;;9.66;55.88
48156;BME280;35568;48.104;11.782;2023-10-31T09:34:41;94405.66;;;9.90;56.00
48156;BME280;35568;48.104;11.782;2023-10-31T09:37:08;94411.73;;;9.93;55.46
48156;BME280;35568;48.104;11.782;2023-10-31T09:39:35;94408.37;;;10.02;55.77
48156;BME280;35568;48.104;11.782;2023-10-31T09:42:02;94411.77;;;10.00;54.89
48156;BME280;35568;48.104;11.782;2023-10-31T09:44:30;94413.17;;;10.03;54.66
48156;BME280;35568;48.104;11.782;2023-10-31T09:46:57;94412.05;;;9.75;55.11
48156;BME280;35568;48.104;11.782;2023-10-31T09:49:24;94408.64;;;9.90;55.74
48156;BME280;35568;48.104;11.782;2023-10-31T09:51:52;94404.43;;;10.05;55.12
48156;BME280;35568;48.104;11.782;2023-10-31T09:54:19;94406.55;;;9.85;54.73
48156;BME280;35568;48.104;11.782;2023-10-31T09:56:47;94420.08;;;10.13;54.50
48156;BME280;35568;48.104;11.782;2023-10-31T09:59:15;94426.95;;;9.83;54.85
48156;BME280;35568;48.104;11.782;2023-10-31T10:01:42;94442.42;;;10.32;54.91
48156;BME280;35568;48.104;11.782;2023-10-31T10:04:10;94452.09;;;10.43;54.83
48156;BME280;35568;48.104;11.782;2023-10-31T10:06:49;94457.61;;;10.16;54.78
48156;BME280;35568;48.104;11.782;2023-10-31T10:09:16;94462.84;;;9.78;54.71
48156;BME280;35568;48.104;11.782;2023-10-31T10:11:43;94464.05;;;9.71;54.18
48156;BME280;35568;48.104;11.782;2023-10-31T10:14:12;94463.92;;;10.30;54.42
48156;BME280;35568;48.104;11.782;2023-10-31T10:16:39;94466.74;;;10.17;54.51
48156;BME280;35568;48.104;11.782;2023-10-31T10:19:24;94469.40;;;10.55;54.64
48156;BME280;35568;48.104;11.782;2023-10-31T10:21:52;94469.67;;;10.28;54.72
48156;BME280;35568;48.104;11.782;2023-10-31T10:24:21;94473.36;;;10.18;54.51
48156;BME280;35568;48.104;11.782;2023-10-31T10:26:48;94474.01;;;10.15;54.45
48156;BME280;35568;48.104;11.782;2023-10-31T10:29:16;94471.34;;;10.37;54.01
48156;BME280;35568;48.104;11.782;2023-10-31T10:31:43;94471.40;;;10.42;54.00
48156;BME280;35568;48.104;11.782;2023-10-31T10:34:12;94469.37;;;10.36;54.08
48156;BME280;35568;48.104;11.782;2023-10-31T10:36:40;94467.67;;;10.63;53.86
48156;BME280;35568;48.104;11.782;2023-10-31T10:39:07;94462.39;;;10.35;54.11
48156;BME280;35568;48.104;11.782;2023-10-31T10:41:35;94460.49;;;10.58;53.86
48156;BME280;35568;48.104;11.782;2023-10-31T10:44:07;94460.10;;;10.70;53.84
48156;BME280;35568;48.104;11.782;2023-10-31T10:46:36;94462.14;;;10.65;53.62
48156;BME280;35568;48.104;11.782;2023-10-31T10:49:04;94460.86;;;10.70;53.42
48156;BME280;35568;48.104;11.782;2023-10-31T10:51:43;94458.94;;;10.70;53.63
48156;BME280;35568;48.104;11.782;2023-10-31T10:54:26;94461.83;;;10.59;53.76
48156;BME280;35568;48.104;11.782;2023-10-31T10:57:07;94464.27;;;10.70;52.98
48156;BME280;35568;48.104;11.782;2023-10-31T10:59:41;94461.00;;;10.49;53.42
48156;BME280;35568;48.104;11.782;2023-10-31T11:02:08;94456.24;;;10.52;52.92
48156;BME280;35568;48.104;11.782;2023-10-31T11:04:37;94450.58;;;10.68;53.06
48156;BME280;35568;48.104;11.782;2023-10-31T11:07:05;94452.44;;;10.92;51.89
48156;BME280;35568;48.104;11.782;2023-10-31T11:09:33;94457.39;;;10.57;52.27
48156;BME280;35568;48.104;11.782;2023-10-31T11:12:00;94462.04;;;10.54;52.88
48156;BME280;35568;48.104;11.782;2023-10-31T11:14:29;94459.39;;;10.94;52.29
48156;BME280;35568;48.104;11.782;2023-10-31T11:17:01;94455.66;;;11.30;52.07
48156;BME280;35568;48.104;11.782;2023-10-31T11:19:30;94455.55;;;10.57;51.60
48156;BME280;35568;48.104;11.782;2023-10-31T11:21:59;94450.48;;;10.78;52.07
48156;BME280;35568;48.104;11.782;2023-10-31T11:24:28;94449.42;;;10.82;51.84
48156;BME280;35568;48.104;11.782;2023-10-31T11:27:00;94450.63;;;11.43;51.45
48156;BME280;35568;48.104;11.782;2023-10-31T11:29:28;94452.25;;;11.25;50.47
48156;BME280;35568;48.104;11.782;2023-10-31T11:31:55;94450.51;;;11.17;50.90
48156;BME280;35568;48.104;11.782;2023-10-31T11:34:23;94447.09;;;10.85;50.99
48156;BME280;35568;48.104;11.782;2023-10-31T11:36:53;94443.99;;;10.86;51.33
48156;BME280;35568;48.104;11.782;2023-10-31T11:39:21;94438.89;;;10.87;51.50
48156;BME280;35568;48.104;11.782;2023-10-31T11:41:50;94435.10;;;10.99;51.06
48156;BME280;35568;48.104;11.782;2023-10-31T11:44:17;94432.58;;;11.03;50.81
48156;BME280;35568;48.104;11.782;2023-10-31T11:46:45;94429.87;;;11.40;50.46
48156;BME280;35568;48.104;11.782;2023-10-31T11:49:13;94430.47;;;11.48;50.65
48156;BME280;35568;48.104;11.782;2023-10-31T11:51:39;94432.08;;;11.65;50.05
48156;BME280;35568;48.104;11.782;2023-10-31T11:54:07;94432.98;;;11.80;49.79
48156;BME280;35568;48.104;11.782;2023-10-31T11:56:35;94432.02;;;11.73;49.85
48156;BME280;35568;48.104;11.782;2023-10-31T11:59:04;94431.75;;;11.62;50.34
48156;BME280;35568;48.104;11.782;2023-10-31T12:01:32;94432.10;;;11.81;49.39
48156;BME280;35568;48.104;11.782;2023-10-31T12:04:00;94431.02;;;11.60;49.80
48156;BME280;35568;48.104;11.782;2023-10-31T12:06:27;94432.28;;;11.77;49.80
48156;BME280;35568;48.104;11.782;2023-10-31T12:09:01;94431.34;;;12.09;49.60
48156;BME280;35568;48.104;11.782;2023-10-31T12:11:28;94431.49;;;11.94;48.75
48156;BME280;35568;48.104;11.782;2023-10-31T12:13:57;94429.93;;;12.44;48.82
48156;BME280;35568;48.104;11.782;2023-10-31T12:16:26;94428.36;;;12.13;48.63
48156;BME280;35568;48.104;11.782;2023-10-31T12:18:55;94426.12;;;12.22;48.60
48156;BME280;35568;48.104;11.782;2023-10-31T12:21:37;94423.14;;;12.13;49.21
48156;BME280;35568;48.104;11.782;2023-10-31T12:24:05;94419.82;;;12.16;48.84
48156;BME280;35568;48.104;11.782;2023-10-31T12:26:34;94416.42;;;12.08;49.30
48156;BME280;35568;48.104;11.782;2023-10-31T12:29:07;94419.14;;;12.12;48.38
48156;BME280;35568;48.104;11.782;2023-10-31T12:31:42;94420.75;;;12.09;48.45
48156;BME280;35568;48.104;11.782;2023-10-31T12:34:10;94427.14;;;12.13;48.32
48156;BME280;35568;48.104;11.782;2023-10-31T12:36:37;94424.27;;;12.56;49.52
48156;BME280;35568;48.104;11.782;2023-10-31T12:39:05;94427.02;;;12.51;48.80
48156;BME280;35568;48.104;11.782;2023-10-31T12:41:34;94426.34;;;12.61;48.53
48156;BME280;35568;48.104;11.782;2023-10-31T12:44:02;94425.02;;;12.16;48.64
48156;BME280;35568;48.104;11.782;2023-10-31T12:46:30;94427.37;;;12.17;48.15
48156;BME280;35568;48.104;11.782;2023-10-31T12:48:58;94425.03;;;11.94;48.96
48156;BME280;35568;48.104;11.782;2023-10-31T12:51:25;94430.46;;;11.87;48.65
48156;BME280;35568;48.104;11.782;2023-10-31T12:53:53;94432.01;;;12.00;49.40
48156;BME280;35568;48.104;11.782;2023-10-31T12:56:39;94433.15;;;12.14;48.64
48156;BME280;35568;48.104;11.782;2023-10-31T12:59:07;94434.08;;;12.09;48.69
48156;BME280;35568;48.104;11.782;2023-10-31T13:01:35;94441.22;;;11.61;49.08
48156;BME280;35568;48.104;11.782;2023-10-31T13:04:03;94436.88;;;11.82;48.80